createdAt,value
2019-06-27T00:01:19.096Z,54.90
2019-06-27T00:04:03.861Z,55.00
2019-06-27T00:06:48.820Z,54.90
2019-06-27T00:09:33.785Z,55.10
2019-06-27T00:12:19.293Z,55.20
2019-06-27T00:15:04.126Z,55.40
2019-06-27T00:17:48.857Z,56.00
2019-06-27T00:20:33.663Z,55.30
2019-06-27T00:23:18.485Z,55.20
2019-06-27T00:26:03.393Z,55.10
2019-06-27T00:28:48.399Z,55.20
2019-06-27T00:31:33.521Z,55.20
2019-06-27T00:34:18.303Z,55.10
2019-06-27T00:37:03.270Z,55.10
2019-06-27T00:39:47.932Z,55.60
2019-06-27T00:42:32.804Z,55.10
2019-06-27T00:45:17.851Z,55.20
2019-06-27T00:48:02.760Z,55.10
2019-06-27T00:50:47.467Z,55.10
2019-06-27T00:53:32.268Z,55.00
2019-06-27T00:56:17.424Z,54.80
2019-06-27T00:59:02.201Z,54.60
2019-06-27T01:01:47.133Z,54.60
2019-06-27T01:04:32.046Z,54.50
2019-06-27T01:07:19.496Z,54.50
2019-06-27T01:10:05.547Z,54.40
2019-06-27T01:12:50.271Z,54.40
2019-06-27T01:15:35.084Z,54.30
2019-06-27T01:18:19.961Z,54.00
2019-06-27T01:21:04.864Z,53.70
2019-06-27T01:23:49.661Z,53.70
2019-06-27T01:26:34.503Z,54.00
2019-06-27T01:29:19.382Z,54.00
2019-06-27T01:32:04.272Z,54.00
2019-06-27T01:34:49.179Z,54.20
2019-06-27T01:37:34.038Z,54.20
2019-06-27T01:40:19.240Z,54.00
2019-06-27T01:43:03.745Z,54.00
2019-06-27T01:45:56.249Z,54.00
2019-06-27T01:48:41.080Z,54.10
2019-06-27T01:51:25.803Z,54.10
2019-06-27T01:54:10.715Z,54.30
2019-06-27T01:56:55.708Z,54.40
2019-06-27T01:59:40.490Z,54.20
2019-06-27T02:02:25.492Z,54.30
2019-06-27T02:05:10.744Z,54.00
2019-06-27T02:07:55.436Z,53.80
2019-06-27T02:10:40.797Z,53.70
2019-06-27T02:13:25.721Z,53.70
2019-06-27T02:16:10.514Z,53.80
2019-06-27T02:18:55.422Z,53.70
2019-06-27T02:21:40.405Z,53.50
2019-06-27T02:24:25.288Z,53.40
2019-06-27T02:27:10.279Z,53.50
2019-06-27T02:29:55.087Z,53.40
2019-06-27T02:32:40.750Z,53.30
2019-06-27T02:35:25.296Z,53.40
2019-06-27T02:38:10.133Z,53.20
2019-06-27T02:40:58.511Z,53.30
2019-06-27T02:43:41.562Z,53.20
2019-06-27T02:46:26.607Z,53.20
2019-06-27T02:49:11.437Z,53.40
2019-06-27T02:51:56.238Z,53.50
2019-06-27T02:54:41.011Z,53.50
2019-06-27T02:57:26.109Z,53.50
2019-06-27T03:00:10.870Z,53.70
2019-06-27T03:02:55.988Z,53.60
2019-06-27T03:05:40.936Z,53.60
2019-06-27T03:08:25.872Z,53.70
2019-06-27T03:11:10.959Z,53.50
2019-06-27T03:13:55.744Z,53.60
2019-06-27T03:16:40.665Z,53.60
2019-06-27T03:19:25.290Z,53.60
2019-06-27T03:22:10.160Z,53.60
2019-06-27T03:24:54.994Z,53.80
2019-06-27T03:27:39.740Z,53.70
2019-06-27T03:30:24.695Z,53.70
2019-06-27T03:33:09.573Z,53.80
2019-06-27T03:35:54.649Z,53.80
2019-06-27T03:38:39.444Z,54.00
2019-06-27T03:41:24.399Z,53.80
2019-06-27T03:44:09.239Z,53.70
2019-06-27T03:46:54.017Z,53.60
2019-06-27T03:49:38.770Z,53.80
2019-06-27T03:52:23.626Z,53.80
2019-06-27T03:55:08.396Z,53.80
2019-06-27T03:57:53.183Z,53.80
2019-06-27T04:00:38.237Z,53.80
2019-06-27T04:03:23.444Z,53.70
2019-06-27T04:06:08.095Z,53.80
2019-06-27T04:08:52.961Z,53.70
2019-06-27T04:11:37.950Z,54.00
2019-06-27T04:14:22.610Z,53.30
2019-06-27T04:17:07.487Z,53.50
2019-06-27T04:19:52.402Z,53.20
2019-06-27T04:22:37.300Z,53.40
2019-06-27T04:25:22.561Z,53.20
2019-06-27T04:28:07.405Z,53.20
2019-06-27T04:30:52.417Z,53.10
2019-06-27T04:33:37.142Z,52.80
2019-06-27T04:36:22.016Z,52.70
2019-06-27T04:39:06.746Z,52.50
2019-06-27T04:41:51.700Z,52.40
2019-06-27T04:44:36.384Z,52.60
2019-06-27T04:47:21.187Z,52.50
2019-06-27T04:50:06.525Z,52.10
2019-06-27T04:52:51.145Z,52.00
2019-06-27T04:55:36.244Z,52.00
2019-06-27T04:58:20.905Z,52.10
2019-06-27T05:01:05.779Z,52.00
2019-06-27T05:03:50.586Z,52.10
2019-06-27T05:06:35.435Z,52.10
2019-06-27T05:09:20.052Z,51.90
2019-06-27T05:12:04.957Z,51.70
2019-06-27T05:14:50.118Z,51.10
2019-06-27T05:17:34.920Z,51.50
2019-06-27T05:20:19.790Z,51.90
2019-06-27T05:23:04.608Z,52.00
2019-06-27T05:25:49.309Z,52.00
2019-06-27T05:28:34.113Z,52.00
2019-06-27T05:31:18.931Z,51.90
2019-06-27T05:34:03.512Z,51.70
2019-06-27T05:36:48.226Z,51.90
2019-06-27T05:39:33.011Z,51.90
2019-06-27T05:42:17.924Z,52.20
2019-06-27T05:45:04.672Z,52.10
2019-06-27T05:47:49.683Z,51.90
2019-06-27T05:50:34.425Z,51.50
2019-06-27T05:53:19.284Z,51.70
2019-06-27T05:56:04.258Z,52.00
2019-06-27T05:58:51.864Z,52.00
2019-06-27T06:01:35.929Z,52.00
2019-06-27T06:04:23.985Z,51.40
2019-06-27T06:07:07.652Z,51.50
2019-06-27T06:09:52.610Z,51.50
2019-06-27T06:12:37.538Z,51.40
2019-06-27T06:15:22.193Z,51.20
2019-06-27T06:18:07.012Z,51.30
2019-06-27T06:20:51.877Z,51.50
2019-06-27T06:23:36.894Z,51.50
2019-06-27T06:26:21.778Z,51.30
2019-06-27T06:29:06.719Z,51.50
2019-06-27T06:31:51.572Z,51.30
2019-06-27T06:34:36.432Z,51.10
2019-06-27T06:37:21.095Z,51.20
2019-06-27T06:40:06.598Z,50.80
2019-06-27T06:42:51.516Z,51.10
2019-06-27T06:45:36.241Z,51.30
2019-06-27T06:48:21.359Z,51.50
2019-06-27T06:51:06.277Z,51.90
2019-06-27T06:53:51.155Z,52.00
2019-06-27T06:56:36.037Z,52.20
2019-06-27T06:59:20.585Z,51.90
2019-06-27T07:02:05.301Z,51.70
2019-06-27T07:04:50.156Z,52.00
2019-06-27T07:07:35.074Z,51.80
2019-06-27T07:10:19.932Z,51.70
2019-06-27T07:13:04.950Z,51.90
2019-06-27T07:15:49.809Z,51.20
2019-06-27T07:18:34.786Z,51.40
2019-06-27T07:21:19.636Z,51.70
2019-06-27T07:24:04.428Z,51.40
2019-06-27T07:26:49.166Z,50.60
2019-06-27T07:29:34.027Z,50.80
2019-06-27T07:32:18.715Z,50.90
2019-06-27T07:35:04.965Z,50.70
2019-06-27T07:37:50.001Z,50.40
2019-06-27T07:40:34.872Z,50.40
2019-06-27T07:43:19.808Z,50.10
2019-06-27T07:46:04.586Z,50.00
2019-06-27T07:48:49.277Z,50.00
2019-06-27T07:51:34.224Z,50.00
2019-06-27T07:54:19.101Z,49.80
2019-06-27T07:57:04.065Z,50.00
2019-06-27T07:59:48.843Z,50.50
2019-06-27T08:02:33.896Z,50.30
2019-06-27T08:05:19.173Z,49.90
2019-06-27T08:08:04.080Z,50.10
2019-06-27T08:10:48.783Z,49.80
2019-06-27T08:13:33.780Z,50.00
2019-06-27T08:16:18.542Z,50.10
2019-06-27T08:19:03.439Z,50.10
2019-06-27T08:21:48.323Z,49.90
2019-06-27T08:24:34.485Z,49.50
2019-06-27T08:27:19.685Z,49.40
2019-06-27T08:30:08.392Z,49.60
2019-06-27T08:32:53.498Z,50.10
2019-06-27T08:35:38.689Z,50.30
2019-06-27T08:38:23.454Z,50.60
2019-06-27T08:41:08.462Z,50.50
2019-06-27T08:43:53.359Z,50.90
2019-06-27T08:46:38.156Z,50.50
2019-06-27T08:49:22.933Z,50.30
2019-06-27T08:52:07.941Z,50.10
2019-06-27T08:54:53.324Z,50.30
2019-06-27T08:57:38.142Z,49.90
2019-06-27T09:00:23.292Z,50.50
2019-06-27T09:03:08.182Z,50.40
2019-06-27T09:05:53.228Z,50.30
2019-06-27T09:08:37.831Z,50.50
2019-06-27T09:11:22.694Z,50.20
2019-06-27T09:14:07.419Z,50.30
2019-06-27T09:16:52.273Z,50.50
2019-06-27T09:19:37.296Z,50.10
2019-06-27T09:22:22.164Z,49.90
2019-06-27T09:25:07.907Z,50.10
2019-06-27T09:27:53.134Z,50.20
2019-06-27T09:30:37.823Z,49.80
2019-06-27T09:33:22.618Z,49.70
2019-06-27T09:36:07.486Z,49.80
2019-06-27T09:38:52.458Z,49.30
2019-06-27T09:41:37.195Z,49.50
2019-06-27T09:44:22.233Z,49.60
2019-06-27T09:47:07.106Z,49.90
2019-06-27T09:49:52.147Z,49.30
2019-06-27T09:52:36.899Z,49.70
2019-06-27T09:55:22.158Z,49.40
2019-06-27T09:58:06.728Z,49.60
2019-06-27T10:00:51.641Z,49.70
2019-06-27T10:03:36.437Z,49.80
2019-06-27T10:06:21.581Z,49.70
2019-06-27T10:09:06.537Z,49.20
2019-06-27T10:11:53.393Z,49.80
2019-06-27T10:14:37.766Z,49.60
2019-06-27T10:17:22.565Z,49.90
2019-06-27T10:20:09.794Z,49.60
2019-06-27T10:22:54.801Z,49.50
2019-06-27T10:25:39.699Z,49.80
2019-06-27T10:28:24.733Z,49.20
2019-06-27T10:31:09.469Z,49.90
2019-06-27T10:33:54.323Z,49.80
2019-06-27T10:36:39.355Z,49.20
2019-06-27T10:39:24.308Z,49.20
2019-06-27T10:42:09.195Z,49.30
2019-06-27T10:44:54.019Z,48.90
2019-06-27T10:47:39.048Z,49.20
2019-06-27T10:50:23.853Z,48.40
2019-06-27T10:53:08.963Z,48.00
2019-06-27T10:55:53.693Z,48.10
2019-06-27T10:58:38.536Z,48.20
2019-06-27T11:01:23.315Z,47.50
2019-06-27T11:04:08.202Z,46.70
2019-06-27T11:06:53.081Z,46.50
2019-06-27T11:09:37.811Z,46.00
2019-06-27T11:12:22.731Z,45.70
2019-06-27T11:15:08.399Z,46.20
2019-06-27T11:17:53.251Z,45.90
2019-06-27T11:20:37.945Z,45.30
2019-06-27T11:23:22.841Z,46.10
2019-06-27T11:26:09.564Z,46.10
2019-06-27T11:28:54.542Z,46.10
2019-06-27T11:31:39.547Z,47.00
2019-06-27T11:34:24.285Z,45.60
2019-06-27T11:37:09.430Z,45.10
2019-06-27T11:39:54.185Z,42.50
2019-06-27T11:42:39.250Z,41.90
2019-06-27T11:45:24.161Z,41.50
2019-06-27T11:48:08.915Z,41.10
2019-06-27T11:50:53.676Z,43.30
2019-06-27T11:53:38.633Z,39.50
2019-06-27T11:56:23.707Z,35.50
2019-06-27T11:59:08.673Z,35.00
2019-06-27T12:01:53.842Z,34.90
2019-06-27T12:04:38.771Z,35.30
2019-06-27T12:07:23.674Z,36.50
2019-06-27T12:10:08.939Z,40.20
2019-06-27T12:12:53.524Z,34.00
2019-06-27T12:15:38.442Z,29.50
2019-06-27T12:18:23.355Z,28.40
2019-06-27T12:21:08.349Z,27.30
2019-06-27T12:23:53.168Z,28.20
2019-06-27T12:26:38.167Z,27.70
2019-06-27T12:29:23.022Z,29.90
2019-06-27T12:32:07.953Z,29.20
2019-06-27T12:34:52.710Z,29.60
2019-06-27T12:37:39.817Z,30.10
2019-06-27T12:40:24.577Z,26.60
2019-06-27T12:43:09.662Z,27.10
2019-06-27T12:45:54.494Z,25.60
2019-06-27T12:48:39.262Z,23.90
2019-06-27T12:51:24.122Z,25.40
2019-06-27T12:54:08.925Z,25.50
2019-06-27T12:56:53.864Z,24.70
2019-06-27T12:59:38.786Z,23.20
2019-06-27T13:02:23.711Z,22.90
2019-06-27T13:05:08.746Z,24.10
2019-06-27T13:07:53.503Z,26.70
2019-06-27T13:10:38.372Z,27.30
2019-06-27T13:13:23.160Z,24.40
2019-06-27T13:16:07.983Z,22.80
2019-06-27T13:18:52.886Z,21.80
2019-06-27T13:21:37.845Z,20.30
2019-06-27T13:24:22.618Z,19.00
2019-06-27T13:27:07.390Z,21.00
2019-06-27T13:29:52.347Z,21.60
2019-06-27T13:32:37.580Z,20.70
2019-06-27T13:35:22.745Z,20.70
2019-06-27T13:38:07.641Z,20.90
2019-06-27T13:40:52.426Z,22.80
2019-06-27T13:43:37.248Z,24.20
2019-06-27T13:46:22.183Z,22.10
2019-06-27T13:49:06.979Z,22.10
2019-06-27T13:51:51.802Z,23.80
2019-06-27T13:54:36.704Z,25.60
2019-06-27T13:57:21.568Z,27.10
2019-06-27T14:00:07.203Z,29.80
2019-06-27T14:02:51.848Z,29.30
2019-06-27T14:05:36.811Z,25.30
2019-06-27T14:08:21.643Z,25.60
2019-06-27T14:11:06.451Z,26.60
2019-06-27T14:13:51.441Z,27.70
2019-06-27T14:16:36.613Z,28.90
2019-06-27T14:19:21.689Z,29.80
2019-06-27T14:22:06.468Z,30.20
2019-06-27T14:24:51.480Z,31.10
2019-06-27T14:27:36.290Z,31.70
2019-06-27T14:30:21.646Z,32.60
2019-06-27T14:33:06.467Z,33.40
2019-06-27T14:35:51.223Z,34.30
2019-06-27T14:38:36.113Z,34.90
2019-06-27T14:41:21.059Z,35.50
2019-06-27T14:44:06.217Z,36.10
2019-06-27T14:46:51.005Z,36.40
2019-06-27T14:49:35.980Z,36.70
2019-06-27T14:52:20.754Z,37.10
2019-06-27T14:55:06.591Z,37.40
2019-06-27T14:57:51.289Z,37.90
2019-06-27T15:00:36.190Z,38.30
2019-06-27T15:03:21.151Z,38.60
2019-06-27T15:06:06.296Z,38.30
2019-06-27T15:08:51.252Z,38.70
2019-06-27T15:11:36.115Z,38.80
2019-06-27T15:14:20.996Z,39.60
2019-06-27T15:17:05.732Z,39.70
2019-06-27T15:19:50.541Z,40.30
2019-06-27T15:22:35.349Z,40.60
2019-06-27T15:25:20.417Z,40.80
2019-06-27T15:28:05.226Z,40.80
2019-06-27T15:30:50.121Z,41.20
2019-06-27T15:33:35.107Z,41.70
2019-06-27T15:36:19.948Z,41.60
2019-06-27T15:39:05.236Z,41.00
2019-06-27T15:41:50.093Z,41.00
2019-06-27T15:44:35.218Z,41.10
2019-06-27T15:47:19.836Z,41.40
2019-06-27T15:50:05.666Z,41.60
2019-06-27T15:52:50.416Z,41.70
2019-06-27T15:55:35.274Z,42.00
2019-06-27T15:58:20.410Z,41.90
2019-06-27T16:01:05.265Z,42.00
2019-06-27T16:03:50.175Z,42.10
2019-06-27T16:06:34.915Z,41.90
2019-06-27T16:09:19.754Z,41.80
2019-06-27T16:12:04.648Z,42.10
2019-06-27T16:14:49.505Z,42.30
2019-06-27T16:17:34.512Z,42.50
2019-06-27T16:20:19.725Z,42.20
2019-06-27T16:23:04.867Z,42.40
2019-06-27T16:25:49.876Z,42.90
2019-06-27T16:28:34.602Z,43.00
2019-06-27T16:31:19.376Z,43.20
2019-06-27T16:34:04.615Z,43.10
2019-06-27T16:36:49.904Z,43.20
2019-06-27T16:39:38.018Z,43.30
2019-06-27T16:42:21.829Z,43.10
2019-06-27T16:45:08.644Z,43.30
2019-06-27T16:47:53.590Z,43.30
2019-06-27T16:50:38.619Z,43.50
2019-06-27T16:53:23.486Z,43.70
2019-06-27T16:56:08.731Z,43.90
2019-06-27T16:58:53.684Z,43.80
2019-06-27T17:01:38.636Z,44.10
2019-06-27T17:04:23.481Z,44.00
2019-06-27T17:07:08.349Z,44.10
2019-06-27T17:09:53.225Z,43.80
2019-06-27T17:12:38.160Z,44.10
2019-06-27T17:15:25.644Z,44.10
2019-06-27T17:18:10.145Z,44.10
2019-06-27T17:20:58.060Z,44.20
2019-06-27T17:23:43.092Z,44.20
2019-06-27T17:26:31.104Z,44.30
2019-06-27T17:29:16.341Z,44.20
2019-06-27T17:32:01.274Z,44.20
2019-06-27T17:34:47.057Z,44.30
2019-06-27T17:37:32.161Z,44.40
2019-06-27T17:40:17.698Z,44.30
2019-06-27T17:43:04.013Z,44.40
2019-06-27T17:45:49.538Z,44.30
2019-06-27T17:48:34.178Z,44.20
2019-06-27T17:51:19.059Z,44.30
2019-06-27T17:54:04.240Z,44.50
2019-06-27T17:56:49.518Z,44.30
2019-06-27T17:59:34.327Z,44.40
2019-06-27T18:02:19.049Z,44.20
2019-06-27T18:05:05.798Z,44.40
2019-06-27T18:07:53.312Z,45.40
2019-06-27T18:10:38.059Z,45.20
2019-06-27T18:13:24.186Z,45.40
2019-06-27T18:16:10.315Z,45.50
2019-06-27T18:18:55.658Z,45.60
2019-06-27T18:21:41.641Z,45.60
2019-06-27T18:24:26.846Z,45.80
2019-06-27T18:27:11.596Z,45.80
2019-06-27T18:29:56.591Z,46.10
2019-06-27T18:32:41.472Z,46.20
2019-06-27T18:35:26.427Z,46.20
2019-06-27T18:38:11.407Z,46.40
2019-06-27T18:40:56.992Z,46.60
2019-06-27T18:43:41.914Z,46.90
2019-06-27T18:46:27.110Z,47.30
2019-06-27T18:49:11.882Z,47.30
2019-06-27T18:51:56.822Z,47.20
2019-06-27T18:54:41.896Z,47.30
2019-06-27T18:57:27.611Z,47.10
2019-06-27T19:00:13.235Z,46.80
2019-06-27T19:02:59.563Z,46.80
2019-06-27T19:05:44.464Z,46.80
2019-06-27T19:08:29.420Z,47.00
2019-06-27T19:11:14.380Z,47.00
2019-06-27T19:13:59.156Z,46.90
2019-06-27T19:16:44.402Z,46.80
2019-06-27T19:19:37.059Z,46.90
2019-06-27T19:22:41.082Z,46.80
2019-06-27T19:25:28.082Z,47.00
2019-06-27T19:28:13.808Z,47.00
2019-06-27T19:30:58.936Z,47.30
2019-06-27T19:33:43.920Z,47.30
2019-06-27T19:36:28.623Z,47.30
2019-06-27T19:39:13.896Z,47.50
2019-06-27T19:41:58.861Z,47.60
2019-06-27T19:44:43.806Z,47.70
2019-06-27T19:47:29.223Z,47.80
2019-06-27T19:50:14.657Z,47.80
2019-06-27T19:52:59.610Z,48.00
2019-06-27T19:55:44.999Z,48.20
2019-06-27T19:58:30.268Z,48.30
2019-06-27T20:01:15.203Z,48.40
2019-06-27T20:04:00.136Z,48.30
2019-06-27T20:06:45.753Z,48.40
2019-06-27T20:09:31.427Z,48.60
2019-06-27T20:12:16.948Z,48.80
2019-06-27T20:15:02.445Z,49.00
2019-06-27T20:17:47.374Z,49.10
2019-06-27T20:20:32.372Z,48.90
2019-06-27T20:23:17.117Z,48.80
2019-06-27T20:26:03.922Z,49.00
2019-06-27T20:28:48.814Z,49.00
2019-06-27T20:31:33.852Z,49.00
2019-06-27T20:34:18.700Z,49.10
2019-06-27T20:37:03.399Z,49.10
2019-06-27T20:39:48.493Z,49.20
2019-06-27T20:42:33.377Z,49.20
2019-06-27T20:45:18.377Z,49.30
2019-06-27T20:48:03.075Z,49.30
2019-06-27T20:50:47.875Z,49.40
2019-06-27T20:53:32.759Z,49.30
2019-06-27T20:56:17.709Z,49.10
2019-06-27T20:59:02.728Z,49.30
2019-06-27T21:01:47.504Z,49.40
2019-06-27T21:04:32.419Z,49.50
2019-06-27T21:07:17.343Z,49.60
2019-06-27T21:10:04.485Z,49.80
2019-06-27T21:12:49.161Z,49.90
2019-06-27T21:15:33.983Z,49.80
2019-06-27T21:18:18.632Z,50.10
2019-06-27T21:21:03.661Z,49.80
2019-06-27T21:23:48.931Z,49.90
2019-06-27T21:26:34.432Z,50.00
2019-06-27T21:29:19.467Z,50.10
2019-06-27T21:32:04.287Z,50.10
2019-06-27T21:34:49.182Z,50.20
2019-06-27T21:37:33.996Z,50.20
2019-06-27T21:40:19.178Z,50.10
2019-06-27T21:43:04.525Z,50.40
2019-06-27T21:45:49.248Z,50.30
2019-06-27T21:48:34.269Z,50.30
2019-06-27T21:51:19.167Z,50.30
2019-06-27T21:54:04.216Z,50.30
2019-06-27T21:56:48.992Z,50.40
2019-06-27T21:59:33.630Z,50.40
2019-06-27T22:02:19.098Z,50.70
2019-06-27T22:05:05.389Z,50.50
2019-06-27T22:07:53.437Z,50.90
2019-06-27T22:10:37.205Z,51.00
2019-06-27T22:13:22.076Z,50.90
2019-06-27T22:16:06.828Z,50.80
2019-06-27T22:18:51.714Z,51.50
2019-06-27T22:21:36.887Z,51.10
2019-06-27T22:24:21.621Z,51.10
2019-06-27T22:27:06.549Z,51.00
2019-06-27T22:29:51.328Z,51.10
2019-06-27T22:32:36.381Z,51.00
2019-06-27T22:35:21.211Z,51.10
2019-06-27T22:38:24.522Z,51.20
2019-06-27T22:41:27.929Z,51.40
2019-06-27T22:44:31.161Z,51.30
2019-06-27T22:47:34.642Z,51.40
2019-06-27T22:50:28.067Z,51.40
2019-06-27T22:53:14.377Z,51.50
2019-06-27T22:55:59.100Z,51.60
2019-06-27T22:58:44.005Z,51.60
2019-06-27T23:01:29.185Z,51.70
2019-06-27T23:04:13.834Z,51.60
2019-06-27T23:06:58.785Z,51.70
2019-06-27T23:09:56.609Z,51.80
2019-06-27T23:12:30.665Z,51.70
2019-06-27T23:15:16.158Z,51.70
2019-06-27T23:18:01.091Z,51.80
2019-06-27T23:20:46.057Z,51.80
2019-06-27T23:23:30.846Z,51.70
2019-06-27T23:26:15.841Z,52.00
2019-06-27T23:29:00.634Z,51.80
2019-06-27T23:31:45.507Z,51.90
2019-06-27T23:34:30.503Z,52.00
2019-06-27T23:37:15.554Z,52.30
2019-06-27T23:40:13.363Z,52.20
2019-06-27T23:42:47.342Z,52.20
2019-06-27T23:45:32.350Z,52.20
2019-06-27T23:48:17.035Z,52.20
2019-06-27T23:51:01.924Z,52.20
2019-06-27T23:53:46.830Z,52.20
2019-06-27T23:56:31.612Z,52.20
2019-06-27T23:59:16.682Z,52.40
